sensor_id;sensor_type;location;lat;lon;timestamp;pressure;altitude;pressure_sealevel;temperature;humidity
7990;BME280;4040;42.848;23.034;2023-12-28T00:00:58;95944.06;;;0.74;100.00
7990;BME280;4040;42.848;23.034;2023-12-28T00:11:10;95940.47;;;0.87;100.00
7990;BME280;4040;42.848;23.034;2023-12-28T00:17:00;95926.63;;;0.90;100.00
7990;BME280;4040;42.848;23.034;2023-12-28T00:22:49;95932.69;;;1.08;100.00
7990;BME280;4040;42.848;23.034;2023-12-28T00:28:38;95942.34;;;1.12;100.00
7990;BME280;4040;42.848;23.034;2023-12-28T00:34:28;95951.38;;;1.03;100.00
7990;BME280;4040;42.848;23.034;2023-12-28T00:40:17;95942.22;;;1.00;100.00
7990;BME280;4040;42.848;23.034;2023-12-28T00:46:06;95944.06;;;0.74;100.00
7990;BME280;4040;42.848;23.034;2023-12-28T00:51:57;95951.22;;;0.65;100.00
7990;BME280;4040;42.848;23.034;2023-12-28T00:57:45;95926.22;;;0.15;100.00
7990;BME280;4040;42.848;23.034;2023-12-28T01:03:35;95952.88;;;0.19;100.00
7990;BME280;4040;42.848;23.034;2023-12-28T01:13:47;95956.16;;;0.24;100.00
7990;BME280;4040;42.848;23.034;2023-12-28T01:19:36;95956.44;;;0.14;100.00
7990;BME280;4040;42.848;23.034;2023-12-28T01:25:26;95973.28;;;0.18;100.00
7990;BME280;4040;42.848;23.034;2023-12-28T01:31:16;95956.72;;;0.04;100.00
7990;BME280;4040;42.848;23.034;2023-12-28T01:37:05;95981.31;;;-0.03;100.00
7990;BME280;4040;42.848;23.034;2023-12-28T01:42:56;95954.69;;;-0.37;100.00
7990;BME280;4040;42.848;23.034;2023-12-28T01:48:48;95980.28;;;-0.24;100.00
7990;BME280;4040;42.848;23.034;2023-12-28T01:54:38;95975.91;;;-0.29;100.00
7990;BME280;4040;42.848;23.034;2023-12-28T02:00:27;95973.13;;;-0.24;100.00
7990;BME280;4040;42.848;23.034;2023-12-28T02:06:18;95954.13;;;-0.17;100.00
7990;BME280;4040;42.848;23.034;2023-12-28T02:16:36;95972.94;;;-0.27;100.00
7990;BME280;4040;42.848;23.034;2023-12-28T02:22:29;95965.75;;;-0.35;100.00
7990;BME280;4040;42.848;23.034;2023-12-28T02:28:20;95971.78;;;-0.43;100.00
7990;BME280;4040;42.848;23.034;2023-12-28T02:34:13;95965.56;;;-0.91;100.00
7990;BME280;4040;42.848;23.034;2023-12-28T02:40:06;95977.34;;;-0.97;100.00
7990;BME280;4040;42.848;23.034;2023-12-28T02:45:57;95978.53;;;-1.03;100.00
7990;BME280;4040;42.848;23.034;2023-12-28T02:51:46;95964.66;;;-1.09;100.00
7990;BME280;4040;42.848;23.034;2023-12-28T02:57:35;95969.75;;;-1.12;100.00
7990;BME280;4040;42.848;23.034;2023-12-28T03:03:27;95963.28;;;-1.06;100.00
7990;BME280;4040;42.848;23.034;2023-12-28T03:09:16;95959.19;;;-1.12;100.00
7990;BME280;4040;42.848;23.034;2023-12-28T03:19:28;95955.59;;;-1.16;100.00
7990;BME280;4040;42.848;23.034;2023-12-28T03:25:17;95957.13;;;-1.37;100.00
7990;BME280;4040;42.848;23.034;2023-12-28T03:31:06;95967.72;;;-1.51;100.00
7990;BME280;4040;42.848;23.034;2023-12-28T03:36:57;95961.16;;;-1.53;100.00
7990;BME280;4040;42.848;23.034;2023-12-28T03:42:46;95956.00;;;-1.58;100.00
7990;BME280;4040;42.848;23.034;2023-12-28T03:48:36;95972.47;;;-1.61;100.00
7990;BME280;4040;42.848;23.034;2023-12-28T03:54:26;95970.66;;;-1.52;100.00
7990;BME280;4040;42.848;23.034;2023-12-28T04:00:15;95983.38;;;-1.54;100.00
7990;BME280;4040;42.848;23.034;2023-12-28T04:06:05;95976.53;;;-1.55;100.00
7990;BME280;4040;42.848;23.034;2023-12-28T04:11:55;95986.19;;;-1.37;100.00
7990;BME280;4040;42.848;23.034;2023-12-28T04:22:06;95980.34;;;-1.48;100.00
7990;BME280;4040;42.848;23.034;2023-12-28T04:27:56;95976.31;;;-1.45;100.00
7990;BME280;4040;42.848;23.034;2023-12-28T04:33:45;95977.22;;;-1.63;100.00
7990;BME280;4040;42.848;23.034;2023-12-28T04:39:34;95957.38;;;-1.61;100.00
7990;BME280;4040;42.848;23.034;2023-12-28T04:45:25;95964.41;;;-1.56;100.00
7990;BME280;4040;42.848;23.034;2023-12-28T04:51:15;95948.91;;;-1.71;100.00
7990;BME280;4040;42.848;23.034;2023-12-28T04:57:04;95970.66;;;-1.52;100.00
7990;BME280;4040;42.848;23.034;2023-12-28T05:02:57;95961.28;;;-1.58;100.00
7990;BME280;4040;42.848;23.034;2023-12-28T05:08:46;95956.59;;;-1.61;100.00
7990;BME280;4040;42.848;23.034;2023-12-28T05:14:35;95964.78;;;-1.49;100.00
7990;BME280;4040;42.848;23.034;2023-12-28T05:24:47;95971.25;;;-1.55;100.00
7990;BME280;4040;42.848;23.034;2023-12-28T05:30:35;95967.38;;;-1.71;100.00
7990;BME280;4040;42.848;23.034;2023-12-28T05:36:25;95968.16;;;-1.84;100.00
7990;BME280;4040;42.848;23.034;2023-12-28T05:42:15;95976.06;;;-1.84;100.00
7990;BME280;4040;42.848;23.034;2023-12-28T05:48:05;95975.00;;;-1.83;100.00
7990;BME280;4040;42.848;23.034;2023-12-28T05:53:54;95985.97;;;-2.03;100.00
7990;BME280;4040;42.848;23.034;2023-12-28T05:59:44;95953.13;;;-2.24;100.00
7990;BME280;4040;42.848;23.034;2023-12-28T06:05:34;95994.41;;;-1.88;100.00
7990;BME280;4040;42.848;23.034;2023-12-28T06:11:23;96000.03;;;-1.94;100.00
7990;BME280;4040;42.848;23.034;2023-12-28T06:17:13;95982.06;;;-2.06;100.00
7990;BME280;4040;42.848;23.034;2023-12-28T06:27:24;96013.50;;;-2.23;100.00
7990;BME280;4040;42.848;23.034;2023-12-28T06:33:15;96011.78;;;-2.00;100.00
7990;BME280;4040;42.848;23.034;2023-12-28T06:39:04;96015.09;;;-1.68;100.00
7990;BME280;4040;42.848;23.034;2023-12-28T06:44:53;95961.78;;;-1.83;100.00
7990;BME280;4040;42.848;23.034;2023-12-28T06:50:43;96031.75;;;-1.18;100.00
7990;BME280;4040;42.848;23.034;2023-12-28T06:56:32;96011.78;;;-0.89;100.00
7990;BME280;4040;42.848;23.034;2023-12-28T07:02:22;96046.34;;;-0.63;100.00
7990;BME280;4040;42.848;23.034;2023-12-28T07:08:12;96052.00;;;-0.34;100.00
7990;BME280;4040;42.848;23.034;2023-12-28T07:14:11;95992.19;;;0.42;100.00
7990;BME280;4040;42.848;23.034;2023-12-28T07:20:00;96072.88;;;2.11;100.00
7990;BME280;4040;42.848;23.034;2023-12-28T07:30:14;96087.22;;;3.84;100.00
7990;BME280;4040;42.848;23.034;2023-12-28T07:36:04;96068.31;;;5.53;100.00
7990;BME280;4040;42.848;23.034;2023-12-28T07:41:53;96067.56;;;6.07;100.00
7990;BME280;4040;42.848;23.034;2023-12-28T07:47:44;96060.25;;;8.42;100.00
7990;BME280;4040;42.848;23.034;2023-12-28T07:53:33;96055.88;;;11.46;77.43
7990;BME280;4040;42.848;23.034;2023-12-28T07:59:22;96064.88;;;13.68;55.23
7990;BME280;4040;42.848;23.034;2023-12-28T08:05:13;96050.09;;;15.26;50.34
7990;BME280;4040;42.848;23.034;2023-12-28T08:11:02;96049.81;;;16.88;46.70
7990;BME280;4040;42.848;23.034;2023-12-28T08:16:52;96045.25;;;18.90;42.02
7990;BME280;4040;42.848;23.034;2023-12-28T08:22:42;96035.16;;;20.12;39.44
7990;BME280;4040;42.848;23.034;2023-12-28T08:32:54;96027.25;;;20.30;38.59
7990;BME280;4040;42.848;23.034;2023-12-28T08:38:45;96026.63;;;18.50;40.86
7990;BME280;4040;42.848;23.034;2023-12-28T08:44:34;96031.41;;;18.46;42.24
7990;BME280;4040;42.848;23.034;2023-12-28T08:50:24;96030.84;;;17.96;43.93
7990;BME280;4040;42.848;23.034;2023-12-28T08:56:16;96001.06;;;18.44;42.79
7990;BME280;4040;42.848;23.034;2023-12-28T09:02:06;96004.25;;;20.27;41.15
7990;BME280;4040;42.848;23.034;2023-12-28T09:07:55;96001.13;;;20.78;39.22
7990;BME280;4040;42.848;23.034;2023-12-28T09:13:46;95989.22;;;21.56;38.43
7990;BME280;4040;42.848;23.034;2023-12-28T09:19:35;95985.75;;;21.77;37.53
7990;BME280;4040;42.848;23.034;2023-12-28T09:25:24;95953.59;;;20.48;40.46
7990;BME280;4040;42.848;23.034;2023-12-28T09:35:37;95952.47;;;20.33;39.88
7990;BME280;4040;42.848;23.034;2023-12-28T09:41:26;95954.91;;;20.56;40.35
7990;BME280;4040;42.848;23.034;2023-12-28T09:47:15;95950.03;;;19.81;41.89
7990;BME280;4040;42.848;23.034;2023-12-28T09:53:05;95927.75;;;20.24;41.44
7990;BME280;4040;42.848;23.034;2023-12-28T09:58:55;95908.38;;;22.56;37.68
7990;BME280;4040;42.848;23.034;2023-12-28T10:04:45;95901.50;;;22.60;37.33
7990;BME280;4040;42.848;23.034;2023-12-28T10:10:36;95890.88;;;21.46;38.51
7990;BME280;4040;42.848;23.034;2023-12-28T10:16:25;95877.88;;;22.72;37.11
7990;BME280;4040;42.848;23.034;2023-12-28T10:22:14;95858.41;;;21.78;37.92
7990;BME280;4040;42.848;23.034;2023-12-28T10:28:06;95843.63;;;21.20;38.82
7990;BME280;4040;42.848;23.034;2023-12-28T10:38:17;95838.59;;;22.44;37.78
7990;BME280;4040;42.848;23.034;2023-12-28T10:44:10;95827.94;;;24.17;34.90
7990;BME280;4040;42.848;23.034;2023-12-28T10:50:04;95812.88;;;23.94;34.74
7990;BME280;4040;42.848;23.034;2023-12-28T10:56:12;95799.34;;;23.37;35.70
7990;BME280;4040;42.848;23.034;2023-12-28T11:02:09;95787.22;;;23.79;35.07
7990;BME280;4040;42.848;23.034;2023-12-28T11:08:00;95778.81;;;23.74;35.15
7990;BME280;4040;42.848;23.034;2023-12-28T11:13:51;95771.09;;;24.37;34.09
7990;BME280;4040;42.848;23.034;2023-12-28T11:19:42;95762.03;;;24.46;33.76
7990;BME280;4040;42.848;23.034;2023-12-28T11:25:31;95749.81;;;25.46;32.49
7990;BME280;4040;42.848;23.034;2023-12-28T11:31:21;95737.13;;;24.08;34.46
7990;BME280;4040;42.848;23.034;2023-12-28T11:41:35;95734.66;;;22.16;37.37
7990;BME280;4040;42.848;23.034;2023-12-28T11:47:25;95735.63;;;21.91;37.93
7990;BME280;4040;42.848;23.034;2023-12-28T11:53:14;95729.06;;;21.58;38.30
7990;BME280;4040;42.848;23.034;2023-12-28T11:59:06;95706.00;;;24.49;34.47
7990;BME280;4040;42.848;23.034;2023-12-28T12:04:56;95687.44;;;24.96;33.52
7990;BME280;4040;42.848;23.034;2023-12-28T12:10:46;95712.19;;;23.20;35.77
7990;BME280;4040;42.848;23.034;2023-12-28T12:16:36;95719.75;;;20.49;39.99
7990;BME280;4040;42.848;23.034;2023-12-28T12:22:26;95718.25;;;16.67;47.23
7990;BME280;4040;42.848;23.034;2023-12-28T12:28:15;95713.13;;;13.40;64.84
7990;BME280;4040;42.848;23.034;2023-12-28T12:34:05;95712.16;;;11.96;95.25
7990;BME280;4040;42.848;23.034;2023-12-28T12:44:17;95709.03;;;11.48;100.00
7990;BME280;4040;42.848;23.034;2023-12-28T12:50:09;95673.56;;;11.04;100.00
7990;BME280;4040;42.848;23.034;2023-12-28T12:55:59;95702.09;;;11.26;100.00
7990;BME280;4040;42.848;23.034;2023-12-28T13:01:48;95661.19;;;10.89;100.00
7990;BME280;4040;42.848;23.034;2023-12-28T13:07:38;95667.38;;;10.93;100.00
7990;BME280;4040;42.848;23.034;2023-12-28T13:13:27;95700.53;;;11.11;100.00
7990;BME280;4040;42.848;23.034;2023-12-28T13:19:17;95692.06;;;11.02;100.00
7990;BME280;4040;42.848;23.034;2023-12-28T13:25:07;95697.06;;;11.11;100.00
7990;BME280;4040;42.848;23.034;2023-12-28T13:30:56;95692.03;;;10.95;100.00
7990;BME280;4040;42.848;23.034;2023-12-28T13:36:45;95698.94;;;10.89;100.00
7990;BME280;4040;42.848;23.034;2023-12-28T13:46:59;95688.13;;;10.75;100.00
7990;BME280;4040;42.848;23.034;2023-12-28T13:52:48;95693.47;;;10.68;100.00
7990;BME280;4040;42.848;23.034;2023-12-28T13:58:37;95681.53;;;10.62;100.00
7990;BME280;4040;42.848;23.034;2023-12-28T14:04:27;95687.28;;;10.57;100.00
7990;BME280;4040;42.848;23.034;2023-12-28T14:10:16;95683.78;;;10.46;100.00
7990;BME280;4040;42.848;23.034;2023-12-28T14:16:05;95685.66;;;10.28;100.00
7990;BME280;4040;42.848;23.034;2023-12-28T14:21:58;95691.69;;;10.11;100.00
7990;BME280;4040;42.848;23.034;2023-12-28T14:27:47;95692.34;;;9.98;100.00
7990;BME280;4040;42.848;23.034;2023-12-28T14:33:37;95697.22;;;9.79;100.00
7990;BME280;4040;42.848;23.034;2023-12-28T14:39:28;95673.72;;;9.69;100.00
7990;BME280;4040;42.848;23.034;2023-12-28T14:49:39;95673.38;;;9.23;100.00
7990;BME280;4040;42.848;23.034;2023-12-28T14:55:29;95655.22;;;8.73;100.00
7990;BME280;4040;42.848;23.034;2023-12-28T15:01:18;95684.34;;;8.68;100.00
7990;BME280;4040;42.848;23.034;2023-12-28T15:07:08;95656.59;;;8.57;100.00
7990;BME280;4040;42.848;23.034;2023-12-28T15:13:00;95675.50;;;8.31;100.00
7990;BME280;4040;42.848;23.034;2023-12-28T15:18:49;95683.38;;;7.91;100.00
7990;BME280;4040;42.848;23.034;2023-12-28T15:24:39;95678.53;;;7.48;100.00
7990;BME280;4040;42.848;23.034;2023-12-28T15:30:29;95693.13;;;6.83;100.00
7990;BME280;4040;42.848;23.034;2023-12-28T15:36:18;95687.84;;;6.45;100.00
7990;BME280;4040;42.848;23.034;2023-12-28T15:42:07;95685.09;;;6.23;100.00
7990;BME280;4040;42.848;23.034;2023-12-28T15:52:19;95692.97;;;5.31;100.00
7990;BME280;4040;42.848;23.034;2023-12-28T15:58:09;95690.03;;;5.05;100.00
7990;BME280;4040;42.848;23.034;2023-12-28T16:03:58;95692.94;;;4.70;100.00
7990;BME280;4040;42.848;23.034;2023-12-28T16:09:48;95691.63;;;4.64;100.00
7990;BME280;4040;42.848;23.034;2023-12-28T16:15:37;95696.59;;;4.50;100.00
7990;BME280;4040;42.848;23.034;2023-12-28T16:21:28;95693.94;;;4.22;100.00
7990;BME280;4040;42.848;23.034;2023-12-28T16:27:19;95698.78;;;4.05;100.00
7990;BME280;4040;42.848;23.034;2023-12-28T16:33:08;95701.19;;;3.82;100.00
7990;BME280;4040;42.848;23.034;2023-12-28T16:38:57;95701.97;;;3.59;100.00
7990;BME280;4040;42.848;23.034;2023-12-28T16:44:47;95709.97;;;3.71;100.00
7990;BME280;4040;42.848;23.034;2023-12-28T16:54:58;95702.84;;;3.87;100.00
7990;BME280;4040;42.848;23.034;2023-12-28T17:00:49;95699.06;;;3.88;100.00
7990;BME280;4040;42.848;23.034;2023-12-28T17:06:38;95708.22;;;3.63;100.00
7990;BME280;4040;42.848;23.034;2023-12-28T17:12:30;95715.19;;;3.67;100.00
7990;BME280;4040;42.848;23.034;2023-12-28T17:18:27;95707.31;;;3.59;100.00
7990;BME280;4040;42.848;23.034;2023-12-28T17:24:18;95721.19;;;3.64;100.00
7990;BME280;4040;42.848;23.034;2023-12-28T17:30:11;95639.03;;;3.15;100.00
7990;BME280;4040;42.848;23.034;2023-12-28T17:36:06;95717.97;;;3.71;100.00
7990;BME280;4040;42.848;23.034;2023-12-28T17:41:55;95719.75;;;3.55;100.00
7990;BME280;4040;42.848;23.034;2023-12-28T17:47:52;95709.09;;;3.67;100.00
7990;BME280;4040;42.848;23.034;2023-12-28T17:58:05;95700.91;;;3.36;100.00
7990;BME280;4040;42.848;23.034;2023-12-28T18:03:54;95701.78;;;3.04;100.00
7990;BME280;4040;42.848;23.034;2023-12-28T18:09:43;95705.03;;;2.65;100.00
7990;BME280;4040;42.848;23.034;2023-12-28T18:15:33;95702.13;;;2.46;100.00
7990;BME280;4040;42.848;23.034;2023-12-28T18:21:22;95689.44;;;2.31;100.00
7990;BME280;4040;42.848;23.034;2023-12-28T18:27:11;95688.16;;;2.17;100.00
7990;BME280;4040;42.848;23.034;2023-12-28T18:33:02;95685.84;;;2.15;100.00
7990;BME280;4040;42.848;23.034;2023-12-28T18:38:51;95692.34;;;2.06;100.00
7990;BME280;4040;42.848;23.034;2023-12-28T18:44:40;95699.00;;;1.91;100.00
7990;BME280;4040;42.848;23.034;2023-12-28T18:50:31;95711.25;;;1.63;100.00
7990;BME280;4040;42.848;23.034;2023-12-28T19:00:43;95703.03;;;1.27;100.00
7990;BME280;4040;42.848;23.034;2023-12-28T19:06:33;95710.84;;;1.32;100.00
7990;BME280;4040;42.848;23.034;2023-12-28T19:12:22;95707.50;;;1.15;100.00
7990;BME280;4040;42.848;23.034;2023-12-28T19:18:11;95687.22;;;1.10;100.00
7990;BME280;4040;42.848;23.034;2023-12-28T19:24:03;95688.81;;;1.32;100.00
7990;BME280;4040;42.848;23.034;2023-12-28T19:29:52;95674.31;;;1.29;100.00
7990;BME280;4040;42.848;23.034;2023-12-28T19:35:43;95676.13;;;1.17;100.00
7990;BME280;4040;42.848;23.034;2023-12-28T19:41:34;95673.09;;;0.98;100.00
7990;BME280;4040;42.848;23.034;2023-12-28T19:47:22;95670.75;;;0.96;100.00
7990;BME280;4040;42.848;23.034;2023-12-28T19:53:12;95655.13;;;1.03;100.00
7990;BME280;4040;42.848;23.034;2023-12-28T20:03:26;95672.28;;;0.97;100.00
7990;BME280;4040;42.848;23.034;2023-12-28T20:09:15;95663.09;;;0.66;100.00
7990;BME280;4040;42.848;23.034;2023-12-28T20:15:06;95657.38;;;0.84;100.00
7990;BME280;4040;42.848;23.034;2023-12-28T20:20:58;95657.16;;;0.98;100.00
7990;BME280;4040;42.848;23.034;2023-12-28T20:26:47;95656.97;;;0.74;100.00
7990;BME280;4040;42.848;23.034;2023-12-28T20:32:36;95652.78;;;0.64;100.00
7990;BME280;4040;42.848;23.034;2023-12-28T20:38:27;95644.91;;;0.47;100.00
7990;BME280;4040;42.848;23.034;2023-12-28T20:44:16;95644.31;;;0.42;100.00
7990;BME280;4040;42.848;23.034;2023-12-28T20:50:05;95646.00;;;0.46;100.00
7990;BME280;4040;42.848;23.034;2023-12-28T20:55:58;95644.44;;;0.45;100.00
7990;BME280;4040;42.848;23.034;2023-12-28T21:06:09;95621.13;;;0.30;100.00
7990;BME280;4040;42.848;23.034;2023-12-28T21:11:59;95630.66;;;0.23;100.00
7990;BME280;4040;42.848;23.034;2023-12-28T21:17:49;95600.31;;;0.03;100.00
7990;BME280;4040;42.848;23.034;2023-12-28T21:23:40;95617.06;;;0.24;100.00
7990;BME280;4040;42.848;23.034;2023-12-28T21:29:32;95540.59;;;-0.31;100.00
7990;BME280;4040;42.848;23.034;2023-12-28T21:35:23;95579.72;;;0.17;100.00
7990;BME280;4040;42.848;23.034;2023-12-28T21:41:12;95604.44;;;0.38;100.00
7990;BME280;4040;42.848;23.034;2023-12-28T21:47:03;95601.13;;;0.41;100.00
7990;BME280;4040;42.848;23.034;2023-12-28T21:52:52;95598.97;;;0.35;100.00
7990;BME280;4040;42.848;23.034;2023-12-28T21:58:42;95592.72;;;0.39;100.00
7990;BME280;4040;42.848;23.034;2023-12-28T22:08:54;95564.75;;;0.21;100.00
7990;BME280;4040;42.848;23.034;2023-12-28T22:11:22;95514.38;;;-0.08;100.00
7990;BME280;4040;42.848;23.034;2023-12-28T22:17:11;95581.88;;;0.61;100.00
7990;BME280;4040;42.848;23.034;2023-12-28T22:23:00;95569.78;;;0.43;100.00
7990;BME280;4040;42.848;23.034;2023-12-28T22:28:51;95586.38;;;0.69;100.00
7990;BME280;4040;42.848;23.034;2023-12-28T22:34:40;95578.56;;;0.64;100.00
7990;BME280;4040;42.848;23.034;2023-12-28T22:40:29;95557.38;;;0.64;100.00
7990;BME280;4040;42.848;23.034;2023-12-28T22:46:21;95574.28;;;0.51;100.00
7990;BME280;4040;42.848;23.034;2023-12-28T22:52:09;95577.03;;;0.63;100.00
7990;BME280;4040;42.848;23.034;2023-12-28T22:57:58;95559.22;;;0.93;100.00
7990;BME280;4040;42.848;23.034;2023-12-28T23:08:32;95551.38;;;0.47;100.00
7990;BME280;4040;42.848;23.034;2023-12-28T23:14:21;95550.13;;;0.53;100.00
7990;BME280;4040;42.848;23.034;2023-12-28T23:20:11;95531.28;;;0.46;100.00
7990;BME280;4040;42.848;23.034;2023-12-28T23:26:02;95529.97;;;0.31;100.00
7990;BME280;4040;42.848;23.034;2023-12-28T23:31:51;95530.84;;;0.06;100.00
7990;BME280;4040;42.848;23.034;2023-12-28T23:37:40;95529.69;;;-0.21;100.00
7990;BME280;4040;42.848;23.034;2023-12-28T23:43:31;95536.38;;;-0.15;100.00
7990;BME280;4040;42.848;23.034;2023-12-28T23:49:20;95529.66;;;-0.04;100.00
7990;BME280;4040;42.848;23.034;2023-12-28T23:55:09;95523.25;;;-0.12;100.00
